Terminal Aerodrome Forecast
Issued by NWS Lake Charles, LA

Home | Current Version | Previous Version | Text Only | Print | Product List | Glossary On
Versions: 1 2 3 4 5 6 7 8 9 10 11 12
000
FTUS44 KLCH 201136
TAFLCH
TAF
KLCH 201136Z 2012/2112 11007KT P6SM VCSH BKN025 OVC060
     FM201600 16013G20KT P6SM VCSH BKN025 OVC060
     FM210000 15009KT P6SM OVC015
     FM210600 15006KT 4SM BR OVC007=

USA.gov is the U.S. government's official web portal to all federal, state and local government web resources and services.